createdAt,value
2022-08-22T00:02:12.908Z,57.59
2022-08-22T00:03:12.822Z,50.25
2022-08-22T00:04:44.698Z,56.76
2022-08-22T00:07:14.640Z,56.06
2022-08-22T00:09:53.860Z,56.77
2022-08-22T00:12:29.411Z,56.73
2022-08-22T00:15:05.960Z,57.61
2022-08-22T00:17:38.552Z,57.72
2022-08-22T00:20:35.846Z,57.81
2022-08-22T00:23:27.770Z,57.94
2022-08-22T00:26:21.018Z,57.62
2022-08-22T00:29:00.798Z,57.80
2022-08-22T00:31:43.511Z,57.02
2022-08-22T00:34:22.881Z,56.95
2022-08-22T00:37:08.183Z,56.18
2022-08-22T00:39:58.484Z,57.50
2022-08-22T00:42:55.074Z,56.64
2022-08-22T00:45:48.091Z,56.09
2022-08-22T00:48:48.484Z,55.95
2022-08-22T00:51:45.343Z,54.88
2022-08-22T00:54:40.034Z,55.13
2022-08-22T00:57:18.572Z,56.78
2022-08-22T01:00:00.045Z,56.14
2022-08-22T01:02:27.263Z,56.83
2022-08-22T01:05:05.843Z,57.67
2022-08-22T01:08:16.034Z,56.07
2022-08-22T01:10:56.198Z,55.99
2022-08-22T01:13:47.658Z,56.91
2022-08-22T01:16:48.437Z,56.81
2022-08-22T01:19:46.919Z,56.19
2022-08-22T01:22:51.162Z,56.79
2022-08-22T01:25:42.956Z,56.41
2022-08-22T01:28:31.111Z,57.00
2022-08-22T01:31:10.419Z,57.25
2022-08-22T01:34:14.595Z,57.04
2022-08-22T01:37:04.458Z,56.76
2022-08-22T01:40:03.268Z,56.20
2022-08-22T01:42:41.840Z,55.74
2022-08-22T01:45:14.658Z,55.65
2022-08-22T01:48:00.592Z,56.95
2022-08-22T01:50:39.657Z,57.46
2022-08-22T01:53:24.630Z,57.57
2022-08-22T01:56:03.426Z,58.03
2022-08-22T01:58:33.289Z,58.63
2022-08-22T02:01:17.875Z,57.65
2022-08-22T02:04:02.483Z,58.65
2022-08-22T02:06:52.684Z,58.03
2022-08-22T02:09:53.502Z,57.66
2022-08-22T02:12:32.394Z,58.22
2022-08-22T02:15:17.098Z,58.26
2022-08-22T02:18:05.753Z,58.25
2022-08-22T02:20:57.263Z,58.44
2022-08-22T02:23:33.075Z,57.69
2022-08-22T02:26:02.898Z,58.25
2022-08-22T02:29:07.854Z,59.77
2022-08-22T02:31:53.400Z,60.84
2022-08-22T02:34:41.238Z,59.68
2022-08-22T02:37:34.046Z,59.75
2022-08-22T02:40:08.047Z,59.28
2022-08-22T02:42:46.916Z,58.14
2022-08-22T02:45:39.049Z,58.90
2022-08-22T02:48:40.408Z,59.85
2022-08-22T02:51:22.031Z,59.48
2022-08-22T02:54:08.963Z,59.27
2022-08-22T02:56:44.874Z,59.47
2022-08-22T02:59:27.036Z,59.56
2022-08-22T03:01:55.773Z,59.48
2022-08-22T03:04:43.789Z,59.28
2022-08-22T03:07:14.382Z,59.39
2022-08-22T03:10:03.640Z,58.91
2022-08-22T03:12:38.428Z,59.49
2022-08-22T03:15:20.355Z,60.93
2022-08-22T03:18:03.999Z,60.48
2022-08-22T03:20:42.283Z,60.21
2022-08-22T03:23:40.705Z,61.03
2022-08-22T03:26:22.586Z,61.15
2022-08-22T03:28:59.321Z,62.05
2022-08-22T03:31:28.740Z,62.91
2022-08-22T03:34:25.133Z,60.79
2022-08-22T03:37:06.678Z,60.08
2022-08-22T03:39:56.433Z,58.76
2022-08-22T03:42:23.217Z,59.44
2022-08-22T03:45:13.015Z,59.63
2022-08-22T03:48:18.002Z,59.04
2022-08-22T03:51:03.020Z,60.10
2022-08-22T03:54:05.518Z,59.73
2022-08-22T03:56:58.952Z,60.03
2022-08-22T03:59:42.801Z,60.62
2022-08-22T04:02:42.903Z,60.43
2022-08-22T04:05:32.250Z,61.00
2022-08-22T04:08:14.935Z,60.73
2022-08-22T04:11:19.048Z,60.33
2022-08-22T04:14:10.504Z,60.56
2022-08-22T04:17:07.712Z,60.25
2022-08-22T04:19:58.464Z,59.01
2022-08-22T04:22:39.736Z,59.84
2022-08-22T04:25:16.928Z,60.09
2022-08-22T04:27:55.936Z,60.80
2022-08-22T04:30:38.319Z,60.68
2022-08-22T04:33:28.445Z,59.76
2022-08-22T04:36:02.107Z,60.18
2022-08-22T04:39:18.501Z,59.60
2022-08-22T04:42:31.220Z,60.70
2022-08-22T04:45:09.591Z,64.38
2022-08-22T04:47:47.139Z,62.04
2022-08-22T04:50:42.900Z,60.85
2022-08-22T04:53:27.451Z,60.75
2022-08-22T04:55:54.115Z,61.85
2022-08-22T04:58:32.630Z,60.68
2022-08-22T05:01:11.226Z,61.49
2022-08-22T05:03:45.044Z,61.48
2022-08-22T05:06:15.730Z,61.90
2022-08-22T05:08:45.882Z,61.21
2022-08-22T05:11:19.439Z,61.19
2022-08-22T05:14:13.769Z,61.18
2022-08-22T05:16:44.110Z,61.31
2022-08-22T05:19:27.127Z,61.16
2022-08-22T05:21:57.691Z,61.93
2022-08-22T05:24:32.064Z,62.57
2022-08-22T05:27:09.705Z,62.79
2022-08-22T05:29:40.326Z,61.48
2022-08-22T05:32:18.489Z,61.05
2022-08-22T05:34:46.726Z,60.84
2022-08-22T05:37:45.871Z,61.52
2022-08-22T05:40:22.558Z,61.46
2022-08-22T05:42:49.432Z,61.36
2022-08-22T05:45:18.782Z,60.87
2022-08-22T05:47:50.713Z,60.87
2022-08-22T05:50:24.089Z,60.41
2022-08-22T05:53:17.510Z,60.46
2022-08-22T05:56:03.930Z,60.69
2022-08-22T05:58:57.750Z,60.04
2022-08-22T06:02:06.148Z,59.77
2022-08-22T06:04:43.359Z,59.75
2022-08-22T06:07:20.268Z,59.49
2022-08-22T06:09:47.019Z,59.27
2022-08-22T06:12:22.798Z,59.06
2022-08-22T06:15:11.846Z,58.81
2022-08-22T06:17:45.647Z,58.89
2022-08-22T06:20:21.102Z,58.90
2022-08-22T06:22:53.689Z,58.87
2022-08-22T06:25:32.563Z,58.58
2022-08-22T06:28:04.403Z,58.93
2022-08-22T06:30:33.276Z,58.87
2022-08-22T06:33:08.401Z,57.82
2022-08-22T06:36:08.042Z,57.32
2022-08-22T06:39:12.450Z,57.05
2022-08-22T06:41:53.804Z,57.06
2022-08-22T06:44:26.111Z,57.39
2022-08-22T06:46:57.556Z,56.37
2022-08-22T06:49:26.968Z,56.32
2022-08-22T06:52:00.102Z,56.19
2022-08-22T06:54:34.259Z,54.80
2022-08-22T06:57:04.489Z,54.34
2022-08-22T06:59:35.419Z,54.83
2022-08-22T07:02:11.015Z,54.89
2022-08-22T07:04:38.280Z,52.96
2022-08-22T07:07:06.051Z,52.53
2022-08-22T07:09:37.337Z,52.69
2022-08-22T07:12:21.515Z,52.18
2022-08-22T07:14:51.381Z,52.47
2022-08-22T07:17:25.048Z,52.29
2022-08-22T07:19:59.748Z,52.10
2022-08-22T07:22:33.139Z,51.81
2022-08-22T07:25:15.423Z,51.32
2022-08-22T07:28:36.936Z,50.17
2022-08-22T07:31:34.535Z,50.84
2022-08-22T07:34:42.521Z,50.77
2022-08-22T07:37:36.696Z,49.70
2022-08-22T07:40:13.013Z,50.18
2022-08-22T07:42:52.088Z,49.34
2022-08-22T07:45:49.579Z,48.71
2022-08-22T07:48:25.517Z,48.25
2022-08-22T07:51:28.546Z,47.96
2022-08-22T07:54:00.954Z,48.33
2022-08-22T07:56:34.747Z,47.95
2022-08-22T07:59:14.672Z,47.56
2022-08-22T08:01:48.404Z,47.10
2022-08-22T08:04:19.595Z,46.96
2022-08-22T08:07:11.268Z,46.20
2022-08-22T08:09:42.944Z,46.36
2022-08-22T08:12:11.857Z,45.47
2022-08-22T08:14:42.635Z,45.61
2022-08-22T08:17:17.559Z,44.98
2022-08-22T08:19:47.300Z,44.84
2022-08-22T08:22:22.712Z,44.26
2022-08-22T08:24:51.142Z,44.23
2022-08-22T08:27:40.839Z,44.07
2022-08-22T08:30:18.467Z,43.29
2022-08-22T08:32:57.622Z,43.81
2022-08-22T08:36:02.043Z,43.21
2022-08-22T08:38:36.631Z,42.37
2022-08-22T08:41:25.144Z,40.62
2022-08-22T08:44:17.010Z,39.81
2022-08-22T08:47:07.424Z,39.33
2022-08-22T08:50:06.543Z,39.20
2022-08-22T08:52:58.646Z,39.36
2022-08-22T08:55:25.509Z,39.76
2022-08-22T08:58:06.554Z,39.09
2022-08-22T09:00:43.006Z,38.76
2022-08-22T09:03:24.049Z,38.10
2022-08-22T09:06:34.528Z,37.41
2022-08-22T09:09:40.094Z,36.62
2022-08-22T09:12:12.833Z,36.04
2022-08-22T09:14:57.582Z,35.57
2022-08-22T09:17:42.687Z,35.56
2022-08-22T09:20:30.598Z,36.20
2022-08-22T09:23:31.808Z,34.91
2022-08-22T09:26:19.233Z,34.04
2022-08-22T09:29:10.902Z,33.71
2022-08-22T09:32:13.042Z,33.35
2022-08-22T09:35:08.132Z,34.76
2022-08-22T09:37:39.307Z,33.94
2022-08-22T09:40:18.863Z,33.53
2022-08-22T09:43:11.693Z,33.44
2022-08-22T09:46:13.233Z,32.77
2022-08-22T09:48:52.963Z,31.83
2022-08-22T09:51:34.479Z,30.48
2022-08-22T09:54:11.596Z,30.25
2022-08-22T09:57:06.224Z,32.39
2022-08-22T09:59:42.671Z,31.95
2022-08-22T10:02:36.108Z,31.16
2022-08-22T10:05:03.959Z,32.77
2022-08-22T10:07:51.536Z,31.95
2022-08-22T10:10:32.228Z,32.10
2022-08-22T10:13:19.128Z,31.32
2022-08-22T10:16:02.062Z,31.74
2022-08-22T10:18:52.810Z,30.12
2022-08-22T10:21:36.144Z,30.63
2022-08-22T10:24:25.708Z,30.22
2022-08-22T10:27:02.262Z,29.24
2022-08-22T10:29:38.344Z,30.04
2022-08-22T10:32:33.499Z,29.06
2022-08-22T10:35:19.197Z,28.74
2022-08-22T10:38:12.414Z,28.91
2022-08-22T10:40:56.984Z,30.15
2022-08-22T10:43:56.428Z,28.75
2022-08-22T10:46:42.547Z,29.05
2022-08-22T10:49:33.770Z,30.19
2022-08-22T10:52:15.841Z,30.19
2022-08-22T10:55:17.506Z,29.16
2022-08-22T10:57:57.531Z,29.36
2022-08-22T11:00:27.032Z,29.49
2022-08-22T11:03:29.292Z,28.15
2022-08-22T11:06:05.032Z,27.48
2022-08-22T11:08:50.469Z,27.52
2022-08-22T11:11:20.234Z,26.67
2022-08-22T11:14:25.405Z,24.51
2022-08-22T11:17:11.973Z,25.00
2022-08-22T11:19:58.068Z,23.13
2022-08-22T11:22:40.491Z,21.69
2022-08-22T11:25:13.812Z,20.41
2022-08-22T11:27:46.653Z,18.44
2022-08-22T11:30:24.100Z,16.84
2022-08-22T11:33:00.124Z,16.49
2022-08-22T11:35:42.773Z,16.04
2022-08-22T11:38:25.043Z,16.28
2022-08-22T11:41:06.477Z,17.44
2022-08-22T11:43:59.522Z,17.10
2022-08-22T11:46:58.086Z,16.50
2022-08-22T11:49:57.543Z,15.82
2022-08-22T11:52:34.733Z,16.32
2022-08-22T11:55:38.314Z,17.77
2022-08-22T11:58:30.362Z,19.32
2022-08-22T12:01:04.749Z,18.98
2022-08-22T12:03:55.840Z,21.34
2022-08-22T12:06:41.830Z,21.77
2022-08-22T12:09:27.894Z,20.66
2022-08-22T12:12:05.606Z,20.45
2022-08-22T12:14:43.848Z,22.63
2022-08-22T12:17:55.973Z,22.09
2022-08-22T12:20:54.753Z,22.64
2022-08-22T12:23:49.136Z,22.24
2022-08-22T12:26:46.485Z,23.52
2022-08-22T12:29:52.790Z,22.98
2022-08-22T12:33:16.376Z,22.02
2022-08-22T12:36:03.063Z,23.16
2022-08-22T12:38:50.066Z,23.37
2022-08-22T12:41:48.304Z,23.89
2022-08-22T12:44:33.345Z,23.59
2022-08-22T12:46:59.986Z,23.79
2022-08-22T12:50:08.326Z,23.80
2022-08-22T12:52:41.204Z,22.13
2022-08-22T12:55:27.829Z,23.68
2022-08-22T12:58:01.039Z,23.63
2022-08-22T13:00:36.856Z,22.50
2022-08-22T13:03:09.691Z,23.58
2022-08-22T13:05:40.508Z,23.36
2022-08-22T13:08:21.887Z,22.93
2022-08-22T13:11:01.308Z,22.86
2022-08-22T13:13:43.566Z,23.41
2022-08-22T13:16:25.602Z,24.15
2022-08-22T13:19:13.504Z,24.10
2022-08-22T13:21:47.123Z,24.28
2022-08-22T13:24:38.190Z,25.30
2022-08-22T13:27:21.643Z,24.44
2022-08-22T13:29:55.537Z,26.33
2022-08-22T13:32:28.536Z,26.72
2022-08-22T13:34:58.059Z,26.31
2022-08-22T13:37:31.578Z,28.14
2022-08-22T13:40:02.490Z,28.51
2022-08-22T13:42:31.522Z,28.95
2022-08-22T13:45:04.984Z,28.75
2022-08-22T13:47:35.912Z,28.43
2022-08-22T13:50:19.131Z,29.37
2022-08-22T13:53:11.955Z,28.80
2022-08-22T13:55:49.204Z,28.11
2022-08-22T13:58:34.694Z,26.00
2022-08-22T14:01:25.265Z,23.88
2022-08-22T14:03:57.640Z,21.99
2022-08-22T14:06:51.308Z,21.53
2022-08-22T14:09:56.049Z,19.59
2022-08-22T14:12:50.172Z,19.34
2022-08-22T14:15:45.088Z,18.79
2022-08-22T14:18:19.902Z,18.81
2022-08-22T14:20:48.312Z,18.85
2022-08-22T14:23:27.193Z,18.61
2022-08-22T14:25:55.570Z,19.79
2022-08-22T14:28:27.598Z,19.71
2022-08-22T14:31:13.271Z,19.82
2022-08-22T14:33:48.951Z,20.68
2022-08-22T14:36:38.698Z,20.70
2022-08-22T14:39:12.025Z,21.80
2022-08-22T14:41:52.684Z,22.15
2022-08-22T14:44:36.205Z,24.25
2022-08-22T14:47:32.188Z,24.46
2022-08-22T14:49:58.026Z,24.82
2022-08-22T14:52:42.752Z,24.00
2022-08-22T14:55:16.563Z,25.05
2022-08-22T14:57:49.200Z,24.00
2022-08-22T15:00:28.601Z,23.81
2022-08-22T15:03:09.005Z,24.64
2022-08-22T15:05:50.250Z,25.41
2022-08-22T15:08:30.946Z,26.09
2022-08-22T15:11:22.389Z,26.28
2022-08-22T15:13:58.241Z,25.86
2022-08-22T15:16:37.033Z,25.00
2022-08-22T15:19:22.970Z,24.84
2022-08-22T15:21:50.343Z,25.84
2022-08-22T15:24:18.703Z,24.91
2022-08-22T15:26:55.401Z,24.92
2022-08-22T15:29:33.696Z,25.36
2022-08-22T15:32:02.414Z,26.39
2022-08-22T15:34:35.808Z,26.40
2022-08-22T15:37:17.887Z,27.37
2022-08-22T15:40:11.918Z,27.84
2022-08-22T15:42:49.008Z,27.12
2022-08-22T15:45:38.424Z,27.01
2022-08-22T15:48:11.482Z,27.47
2022-08-22T15:50:56.602Z,27.18
2022-08-22T15:54:05.186Z,27.40
2022-08-22T15:57:12.953Z,27.12
2022-08-22T15:59:54.267Z,28.54
2022-08-22T16:02:35.187Z,28.69
2022-08-22T16:05:08.063Z,29.03
2022-08-22T16:07:37.475Z,28.09
2022-08-22T16:10:12.673Z,28.63
2022-08-22T16:12:50.695Z,27.78
2022-08-22T16:15:52.693Z,27.80
2022-08-22T16:18:39.146Z,28.77
2022-08-22T16:21:38.160Z,28.18
2022-08-22T16:24:04.789Z,27.15
2022-08-22T16:26:31.368Z,27.77
2022-08-22T16:29:13.467Z,28.54
2022-08-22T16:31:44.153Z,27.21
2022-08-22T16:34:17.045Z,27.57
2022-08-22T16:36:49.631Z,27.00
2022-08-22T16:39:41.518Z,26.79
2022-08-22T16:42:23.187Z,26.44
2022-08-22T16:45:11.644Z,26.94
2022-08-22T16:47:56.786Z,28.59
2022-08-22T16:50:37.819Z,28.12
2022-08-22T16:53:10.045Z,28.79
2022-08-22T16:55:43.852Z,28.58
2022-08-22T16:58:35.823Z,28.32
2022-08-22T17:01:37.897Z,29.24
2022-08-22T17:04:08.112Z,28.89
2022-08-22T17:06:35.724Z,28.98
2022-08-22T17:09:36.463Z,28.66
2022-08-22T17:12:21.591Z,29.83
2022-08-22T17:15:13.210Z,29.75
2022-08-22T17:18:15.421Z,31.02
2022-08-22T17:21:05.679Z,33.15
2022-08-22T17:23:35.308Z,31.86
2022-08-22T17:26:49.691Z,31.88
2022-08-22T17:29:39.294Z,31.76
2022-08-22T17:32:43.508Z,32.00
2022-08-22T17:36:05.829Z,33.02
2022-08-22T17:38:41.726Z,32.82
2022-08-22T17:41:45.925Z,32.75
2022-08-22T17:44:23.833Z,32.61
2022-08-22T17:47:20.093Z,32.78
2022-08-22T17:50:01.941Z,33.56
2022-08-22T17:52:44.160Z,33.89
2022-08-22T17:55:23.356Z,33.97
2022-08-22T17:58:00.122Z,34.46
2022-08-22T18:00:39.992Z,34.82
2022-08-22T18:03:14.275Z,35.22
2022-08-22T18:05:50.612Z,35.46
2022-08-22T18:09:13.483Z,35.37
2022-08-22T18:11:40.232Z,35.86
2022-08-22T18:14:33.389Z,36.39
2022-08-22T18:17:01.157Z,36.73
2022-08-22T18:19:36.828Z,36.10
2022-08-22T18:22:40.884Z,36.89
2022-08-22T18:25:19.792Z,38.03
2022-08-22T18:27:51.647Z,37.49
2022-08-22T18:30:22.143Z,37.53
2022-08-22T18:32:56.373Z,37.52
2022-08-22T18:35:31.366Z,38.06
2022-08-22T18:38:20.002Z,38.18
2022-08-22T18:40:54.369Z,39.06
2022-08-22T18:43:38.368Z,38.22
2022-08-22T18:46:43.493Z,38.00
2022-08-22T18:49:22.068Z,38.69
2022-08-22T18:52:10.811Z,38.15
2022-08-22T18:54:48.063Z,39.04
2022-08-22T18:57:38.796Z,38.86
2022-08-22T19:00:39.018Z,40.01
2022-08-22T19:03:23.941Z,39.60
2022-08-22T19:06:19.320Z,38.74
2022-08-22T19:09:28.296Z,39.42
2022-08-22T19:12:03.321Z,39.65
2022-08-22T19:15:03.911Z,39.95
2022-08-22T19:17:55.838Z,40.40
2022-08-22T19:20:48.312Z,39.30
2022-08-22T19:23:33.059Z,40.01
2022-08-22T19:26:28.126Z,39.98
2022-08-22T19:29:16.133Z,39.98
2022-08-22T19:31:44.322Z,41.26
2022-08-22T19:34:19.075Z,40.27
2022-08-22T19:37:06.352Z,40.14
2022-08-22T19:39:42.325Z,40.11
2022-08-22T19:42:18.205Z,40.11
2022-08-22T19:44:53.905Z,39.62
2022-08-22T19:47:29.650Z,39.63
2022-08-22T19:50:01.950Z,39.52
2022-08-22T19:52:38.558Z,40.15
2022-08-22T19:55:14.507Z,40.13
2022-08-22T19:57:57.206Z,39.47
2022-08-22T20:00:53.461Z,39.53
2022-08-22T20:03:57.932Z,39.51
2022-08-22T20:06:47.803Z,40.27
2022-08-22T20:09:23.523Z,40.01
2022-08-22T20:12:19.297Z,39.79
2022-08-22T20:14:47.424Z,40.00
2022-08-22T20:17:26.449Z,40.09
2022-08-22T20:20:17.610Z,40.45
2022-08-22T20:22:54.863Z,40.55
2022-08-22T20:25:43.006Z,40.84
2022-08-22T20:28:47.156Z,40.86
2022-08-22T20:31:24.288Z,41.44
2022-08-22T20:34:25.412Z,41.13
2022-08-22T20:37:09.869Z,41.85
2022-08-22T20:39:58.790Z,42.40
2022-08-22T20:42:30.758Z,42.10
2022-08-22T20:44:59.040Z,42.73
2022-08-22T20:47:40.678Z,42.08
2022-08-22T20:50:12.098Z,41.65
2022-08-22T20:52:51.814Z,41.41
2022-08-22T20:55:27.327Z,42.30
2022-08-22T20:58:04.289Z,42.45
2022-08-22T21:00:40.070Z,41.97
2022-08-22T21:03:32.575Z,41.77
2022-08-22T21:06:14.548Z,41.41
2022-08-22T21:08:43.256Z,41.70
2022-08-22T21:11:28.592Z,42.62
2022-08-22T21:13:55.756Z,42.61
2022-08-22T21:16:33.064Z,42.99
2022-08-22T21:19:01.714Z,43.18
2022-08-22T21:21:34.452Z,43.46
2022-08-22T21:24:05.461Z,43.39
2022-08-22T21:26:39.207Z,43.74
2022-08-22T21:29:14.879Z,44.42
2022-08-22T21:31:44.529Z,45.09
2022-08-22T21:34:24.987Z,44.86
2022-08-22T21:36:54.876Z,45.37
2022-08-22T21:39:27.175Z,45.42
2022-08-22T21:42:29.331Z,44.89
2022-08-22T21:45:02.795Z,45.58
2022-08-22T21:47:30.514Z,45.67
2022-08-22T21:50:09.863Z,46.52
2022-08-22T21:52:44.134Z,46.72
2022-08-22T21:55:28.906Z,46.97
2022-08-22T21:58:05.315Z,46.70
2022-08-22T22:00:48.586Z,47.06
2022-08-22T22:05:43.411Z,46.67
2022-08-22T22:08:13.348Z,48.00
2022-08-22T22:10:42.370Z,47.72
2022-08-22T22:13:09.438Z,48.31
2022-08-22T22:15:41.347Z,47.65
2022-08-22T22:18:09.924Z,48.06
2022-08-22T22:20:36.938Z,49.06
2022-08-22T22:23:04.252Z,49.51
2022-08-22T22:25:40.854Z,50.02
2022-08-22T22:28:21.450Z,49.90
2022-08-22T22:30:53.409Z,49.37
2022-08-22T22:33:23.056Z,49.26
2022-08-22T22:35:51.244Z,49.49
2022-08-22T22:38:23.737Z,49.00
2022-08-22T22:40:50.933Z,49.69
2022-08-22T22:43:17.621Z,49.08
2022-08-22T22:45:44.420Z,48.89
2022-08-22T22:48:11.102Z,48.83
2022-08-22T22:50:44.202Z,48.86
2022-08-22T22:53:12.054Z,48.90
2022-08-22T22:55:59.741Z,48.98
2022-08-22T22:58:27.924Z,49.03
2022-08-22T23:00:55.717Z,49.47
2022-08-22T23:03:22.770Z,50.48
2022-08-22T23:05:49.403Z,51.08
2022-08-22T23:08:16.152Z,50.71
2022-08-22T23:10:42.823Z,50.65
2022-08-22T23:13:09.546Z,50.25
2022-08-22T23:15:37.135Z,51.70
2022-08-22T23:18:03.927Z,51.12
2022-08-22T23:20:30.547Z,50.66
2022-08-22T23:22:57.402Z,51.79
2022-08-22T23:25:24.030Z,52.25
2022-08-22T23:27:58.722Z,52.34
2022-08-22T23:30:25.512Z,52.76
2022-08-22T23:32:52.546Z,52.77
2022-08-22T23:35:19.424Z,53.28
2022-08-22T23:37:46.097Z,53.30
2022-08-22T23:40:12.981Z,53.06
2022-08-22T23:42:39.781Z,52.37
2022-08-22T23:45:06.780Z,51.77
2022-08-22T23:47:33.423Z,52.90
2022-08-22T23:50:02.966Z,53.53
2022-08-22T23:52:33.230Z,53.87
2022-08-22T23:54:59.855Z,53.82
2022-08-22T23:57:27.647Z,52.75
2022-08-22T23:59:57.731Z,53.00
